• Join FlightAware (Why Join?)
  • Login
  • US Flag 
Gobble Gobble! 
01:41AM EST


 

Airport Tracker/Info


-or-


 

Live Flight TrackerFlight Track Log ✈ ASA603 ✈ 25-Apr-2013 ✈ KLAS - KSEA

Flight Track Log - Related Links

Times and Time Zones

All times are in EDT time to prevent confusion due to time zone crossing. See the ASA603 flight status page for this flight to view local times or setup timezone preferences in your user account.

Time Position Orientation Groundspeed Altitude Reporting Facility
EDT Latitude Longitude Course Direction KTS MPH feet Rate Location/Type
09:58AM 36.0750 -115.1633 270° West 128 147 3,200  Level Los Angeles Center
09:59AM 36.0747 -115.2219 270° West 202 232 5,000 2,220 Climbing Los Angeles Center
10:01AM 36.0164 -115.2808 219° Southwest 274 315 7,800 2,580 Climbing Los Angeles Center
10:02AM 35.9536 -115.3492 221° Southwest 294 338 11,000 2,520 Climbing Los Angeles Center
10:03AM 35.9433 -115.4803 265° West 372 428 13,400 3,060 Climbing Los Angeles Center
10:04AM 35.9292 -115.6297 263° West 404 465 17,400 3,360 Climbing Los Angeles Center
10:05AM 35.9147 -115.7733 263° West 421 484 20,400 2,760 Climbing Los Angeles Center
10:06AM 35.9017 -115.9372 264° West 447 514 23,100 2,760 Climbing Los Angeles Center
10:07AM 35.9708 -116.0567 306° West 449 517 26,100 2,460 Climbing Los Angeles Center
10:08AM 36.0650 -116.1669 317° Northwest 457 526 28,300 2,460 Climbing Los Angeles Center
10:09AM 36.1561 -116.2703 318° Northwest 455 524 31,200 2,460 Climbing Los Angeles Center
10:10AM 36.2450 -116.3719 317° Northwest 444 511 33,400 2,040 Climbing Los Angeles Center
10:11AM 36.3322 -116.4750 316° Northwest 437 503 35,500 1,680 Climbing Los Angeles Center
10:12AM 36.4211 -116.5747 318° Northwest 435 501 36,900 1,620 Climbing Los Angeles Center
10:13AM 36.5278 -116.7008 316° Northwest 441 507 38,900 1,500 Climbing Los Angeles Center
10:14AM 36.6283 -116.7958 323° Northwest 439 505 40,000 480 Climbing Los Angeles Center
10:15AM 36.7308 -116.8725 329° Northwest 431 496 40,000  Level Los Angeles Center
10:16AM 36.8322 -116.9506 328° Northwest 428 493 40,000  Level Los Angeles Center
10:17AM 36.8919 -116.9989 327° Northwest 427 491 40,000  Level Oakland Center
10:18AM 37.0144 -117.0925 329° Northwest 428 493 40,000  Level Oakland Center
10:19AM 37.1183 -117.1728 328° Northwest 434 499 40,000  Level Oakland Center
10:20AM 37.2186 -117.2506 328° Northwest 426 490 40,000  Level Oakland Center
10:21AM 37.3194 -117.3242 330° Northwest 419 482 40,000  Level Oakland Center
10:22AM 37.4253 -117.3931 333° Northwest 424 488 40,000  Level Oakland Center
10:23AM 37.5314 -117.4611 333° Northwest 426 490 40,000  Level Oakland Center
10:24AM 37.6375 -117.5300 333° Northwest 425 489 40,000  Level Oakland Center
10:25AM 37.7442 -117.5986 333° Northwest 426 490 40,000  Level Oakland Center
10:26AM 37.8508 -117.6694 332° Northwest 429 494 40,000  Level Oakland Center
10:27AM 37.9575 -117.7394 333° Northwest 428 493 40,000  Level Oakland Center
10:28AM 38.0536 -117.8297 324° Northwest 428 493 40,000  Level Oakland Center
10:29AM 38.1394 -117.9328 317° Northwest 424 488 40,000  Level Oakland Center
10:30AM 38.2258 -118.0358 317° Northwest 423 487 40,000  Level Oakland Center
10:31AM 38.3200 -118.1489 317° Northwest 424 488 40,000  Level Oakland Center
10:32AM 38.4053 -118.2547 316° Northwest 426 490 40,000  Level Oakland Center
10:33AM 38.4911 -118.3603 316° Northwest 428 493 40,000  Level Oakland Center
10:34AM 38.5775 -118.4636 317° Northwest 426 490 40,000  Level Oakland Center
10:35AM 38.6633 -118.5694 316° Northwest 427 491 40,000  Level Oakland Center
10:36AM 38.7489 -118.6750 316° Northwest 426 490 40,000  Level Oakland Center
10:37AM 38.8336 -118.7803 316° Northwest 424 488 40,000  Level Oakland Center
10:38AM 38.9186 -118.8853 316° Northwest 423 487 40,000  Level Oakland Center
10:39AM 39.0131 -118.9756 323° Northwest 427 491 40,000  Level Oakland Center
10:40AM 39.1289 -119.0236 342° North 433 498 40,000  Level Oakland Center
10:41AM 39.2533 -119.0803 341° North 434 499 40,000  Level Oakland Center
10:42AM 39.3806 -119.1431 339° North 433 498 40,000  Level Oakland Center
10:43AM 39.4939 -119.1978 340° North 431 496 40,000  Level Oakland Center
10:44AM 39.6058 -119.2539 339° North 429 494 40,000  Level Oakland Center
10:45AM 39.7158 -119.3069 340° North 422 486 40,000  Level Oakland Center
10:46AM 39.8233 -119.3608 339° North 415 478 40,000  Level Oakland Center
10:47AM 39.9306 -119.4139 339° North 411 473 40,000  Level Oakland Center
10:48AM 40.0389 -119.4675 339° North 414 476 40,000  Level Oakland Center
10:49AM 40.1458 -119.5211 339° North 413 475 40,000  Level Oakland Center
10:50AM 40.2525 -119.5742 339° North 410 472 40,000  Level Oakland Center
10:51AM 40.3614 -119.6283 339° North 418 481 40,000  Level Oakland Center
10:52AM 40.4681 -119.6828 339° North 413 475 40,000  Level Oakland Center
10:54AM 40.5911 -119.7453 339° North 415 478 40,000  Level Oakland Center
10:55AM 40.7006 -119.8014 339° North 422 486 40,000  Level Oakland Center
10:56AM 40.8069 -119.8558 339° North 415 478 40,000  Level Oakland Center
10:57AM 40.9139 -119.9097 339° North 413 475 40,000  Level Oakland Center
10:58AM 41.0189 -119.9633 339° North 408 470 40,000  Level Oakland Center
10:59AM 41.1231 -120.0161 339° North 403 464 40,000  Level Oakland Center
11:00AM 41.2264 -120.0714 338° Northwest 402 463 40,000  Level Oakland Center
11:01AM 41.3322 -120.1231 340° North 404 465 40,000  Level Oakland Center
11:02AM 41.4336 -120.1797 337° Northwest 398 458 40,000  Level Oakland Center
11:03AM 41.5375 -120.2328 339° North 399 459 40,000  Level Oakland Center
11:04AM 41.6425 -120.2861 339° North 402 463 40,000  Level Oakland Center
11:05AM 41.7672 -120.3528 338° Northwest 403 464 40,000  Level Oakland Center
11:06AM 41.8706 -120.4072 339° North 402 463 40,000  Level Oakland Center
11:07AM 41.9956 -120.4731 339° North 402 463 40,000  Level Seattle Center
11:08AM 42.0994 -120.5275 339° North 402 463 40,000  Level Seattle Center
11:09AM 42.2031 -120.5822 339° North 401 461 40,000  Level Seattle Center
11:10AM 42.3072 -120.6383 338° Northwest 404 465 40,000  Level Seattle Center
11:11AM 42.4117 -120.6942 338° Northwest 406 467 40,000  Level Seattle Center
11:12AM 42.5158 -120.7503 338° Northwest 406 467 40,000  Level Seattle Center
11:13AM 42.6194 -120.8044 339° North 402 463 40,000  Level Seattle Center
11:14AM 42.7239 -120.8622 338° Northwest 405 466 40,000  Level Seattle Center
11:15AM 42.8286 -120.9181 339° North 406 467 40,000  Level Seattle Center
11:16AM 42.9333 -120.9744 338° Northwest 406 467 40,000  Level Seattle Center
11:17AM 43.0367 -121.0311 338° Northwest 403 464 40,000  Level Seattle Center
11:18AM 43.1619 -121.1006 338° Northwest 405 466 40,000  Level Seattle Center
11:19AM 43.2686 -121.1600 338° Northwest 412 474 40,000  Level Seattle Center
11:20AM 43.3731 -121.2178 338° Northwest 406 467 40,000  Level Seattle Center
11:21AM 43.4764 -121.2764 338° Northwest 402 463 40,000  Level Seattle Center
11:22AM 43.5803 -121.3333 338° Northwest 402 463 40,000  Level Seattle Center
11:23AM 43.6822 -121.3911 338° Northwest 397 457 40,000  Level Seattle Center
11:24AM 43.7842 -121.4467 339° North 395 455 40,000  Level Seattle Center
11:25AM 43.8822 -121.5025 338° Northwest 395 455 40,000  Level Seattle Center
11:26AM 43.9858 -121.5608 338° Northwest 398 458 40,000  Level Seattle Center
11:27AM 44.0886 -121.6203 337° Northwest 396 456 40,000  Level Seattle Center
11:28AM 44.1922 -121.6767 339° North 395 455 40,000  Level Seattle Center
11:29AM 44.2964 -121.7375 337° Northwest 400 460 40,000  Level Seattle Center
11:30AM 44.4011 -121.7964 338° Northwest 402 463 40,000  Level Seattle Center
11:31AM 44.5058 -121.8567 338° Northwest 404 465 40,000  Level Seattle Center
11:32AM 44.6214 -121.9242 337° Northwest 401 461 40,000 -300 Level Seattle Center
11:33AM 44.7231 -121.9822 338° Northwest 397 457 39,400 -840 Descending Seattle Center
11:34AM 44.8172 -122.0358 338° Northwest 375 432 38,300 -720 Descending Seattle Center
11:35AM 44.9050 -122.0903 336° Northwest 353 406 38,000 -180 Descending Seattle Center
11:36AM 44.9953 -122.1450 337° Northwest 355 409 38,000  Level Seattle Center
11:37AM 45.0894 -122.1983 338° Northwest 363 418 38,000  Level Seattle Center
11:38AM 45.1842 -122.2539 338° Northwest 368 423 38,000  Level Seattle Center
11:39AM 45.2781 -122.3103 337° Northwest 370 426 38,000  Level Seattle Center
11:40AM 45.3711 -122.3661 337° Northwest 366 421 38,000  Level Seattle Center
11:41AM 45.4839 -122.4339 337° Northwest 368 423 38,000  Level Seattle Center
11:42AM 45.5808 -122.4922 337° Northwest 371 427 38,000  Level Seattle Center
11:43AM 45.6725 -122.5481 337° Northwest 369 425 38,000 -360 Level Seattle Center
11:44AM 45.7703 -122.5975 341° North 376 433 37,300 -900 Descending Seattle Center
11:45AM 45.8744 -122.6219 351° North 381 438 36,300 -2,100 Descending Seattle Center
11:46AM 45.9775 -122.6489 350° North 380 437 33,100 -3,120 Descending Seattle Center
11:47AM 46.0833 -122.6744 350° North 385 443 30,000 -2,760 Descending Seattle Center
11:48AM 46.1842 -122.6875 355° North 373 429 27,600 -2,520 Descending Seattle Center
11:50AM 46.2864 -122.6678 North 363 418 24,900 -2,580 Descending Seattle Center
11:51AM 46.3797 -122.6544 North 348 400 22,500 -2,340 Descending Seattle Center
11:52AM 46.4708 -122.6419 North 334 384 20,300 -2,400 Descending Seattle Center
11:52AM 46.5497 -122.6289 North 327 376 18,300 -2,280 Descending Seattle Center
11:53AM 46.5606 -122.6297 357° North 328 377 18,000 -2,100 Descending Seattle Center
11:53AM 46.6219 -122.6161 North 332 382 16,600 -2,400 Descending Seattle Center
11:54AM 46.6522 -122.6125 North 333 383 15,600 -2,280 Descending Seattle Center
11:54AM 46.7119 -122.6033 North 326 375 14,300 -2,580 Descending Seattle Center
11:55AM 46.7561 -122.5972 North 316 364 13,000 -2,340 Descending Seattle Center
11:55AM 46.8039 -122.5892 North 308 354 12,000 -2,100 Descending Seattle Center
11:56AM 46.8403 -122.5836 North 308 354 10,900 -1,740 Descending Seattle Center
11:56AM 46.8869 -122.5575 21° North 298 343 10,100 -1,020 Descending Seattle Center
11:57AM 46.9117 -122.5328 34° Northeast 297 342 9,900 -540 Descending Seattle Center
11:57AM 46.9544 -122.4917 33° Northeast 287 330 9,600 -1,020 Descending Seattle Center
11:58AM 46.9761 -122.4703 34° Northeast 277 319 8,900 -1,920 Descending Seattle Center
11:58AM 47.0172 -122.4317 33° Northeast 267 307 7,700 -1,800 Descending Seattle Center
11:59AM 47.0397 -122.4131 29° Northeast 271 312 7,100 -1,500 Descending Seattle Center
11:59AM 47.0869 -122.3742 29° Northeast 268 308 6,200 -1,140 Descending Seattle Center
12:00PM 47.1033 -122.3597 31° Northeast 268 308 6,000 -1,380 Descending Seattle Center
12:00PM 47.1514 -122.3389 16° North 246 283 4,800 -1,800 Descending Seattle Center
12:01PM 47.1689 -122.3342 10° North 249 287 4,200 -840 Descending Seattle Center
12:01PM 47.2200 -122.3208 10° North 243 280 4,000 -300 Descending Seattle Center
12:02PM 47.2336 -122.3194 North 237 273 3,900 -420 Descending Seattle Center
12:02PM 47.2753 -122.3197 360° North 200 230 3,600 -600 Descending Seattle Center
12:03PM 47.2886 -122.3192 North 201 231 3,300 -1,020 Descending Seattle Center
12:03PM 47.3286 -122.3200 359° North 187 215 2,600 -1,200 Descending Seattle Center
12:04PM 47.3503 -122.3189 North 187 215 2,100 -1,020 Descending Seattle Center
12:04PM 47.3839 -122.3189 360° North 171 197 1,500 -900 Descending Seattle Center
12:05PM 47.3961 -122.3186 North 169 194 1,200 -900 Descending Seattle Center
12:05PM 47.4194 -122.3092 15° North 129 148 700 -900 Descending Seattle Center
12:06PM 47.4331 -122.3083 North 133 153 300 -300 Descending Seattle Center
12:07PM 47.4639 -122.3067 North 133 153 300  Level Seattle Center